^^
Meteo Knjazevac Station Historical Data
Daily Summary for August 23, 2019 Units:  Both    English   Metric
Daily Weekly Monthly Yearly Custom
  High: Low: Average:
Temperature: 95.4 °F /  35.2 °C 59.5 °F /  15.3 °C 76.5 °F /  24.7 °C
Dew Point: 68.1 °F /  20.1 °C 56 °F /  13.3 °C 61.8 °F /  16.6 °C
Humidity: 90% 37% 64%
Wind Speed: 7mph /  11.3km/h - 1.8mph /  2.9km/h
Wind Gust: 15mph /  24.1km/h - -
Wind- - South
Pressure: 30.20 in /  1022.6 hPa 30.06 in /  1017.8 hPa -
Precipitation: 0.00 in /  0 mm    
Historical Graphs
 
 
Tabular Data for August 23, 2019
Time Temperature Dew Point Pressure Wind Wind Speed Wind Gust Humidity Rainfall Rate (Hourly) solar Conditions
00:00 67.5 °F /  19.7 °C 58.6 °F /  14.8 °C 30.13in /  1020.2hPa Calm   2mph /  3.2km/h 73% 0.00in /  0mm 0 W/m2
00:10 67.3 °F /  19.6 °C 58.7 °F /  14.8 °C 30.13in /  1020.2hPa Calm     74% 0.00in /  0mm 0 W/m2
00:20 66.9 °F /  19.4 °C 58.7 °F /  14.8 °C 30.13in /  1020.2hPa Calm   2mph /  3.2km/h 75% 0.00in /  0mm 0 W/m2
00:30 66.5 °F /  19.2 °C 58.3 °F /  14.6 °C 30.13in /  1020.2hPa Calm   2mph /  3.2km/h 75% 0.00in /  0mm 0 W/m2
00:40 66.1 °F /  18.9 °C 57.9 °F /  14.4 °C 30.14in /  1020.5hPa Calm   2mph /  3.2km/h 75% 0.00in /  0mm 0 W/m2
00:50 65.8 °F /  18.8 °C 58.4 °F /  14.7 °C 30.14in /  1020.5hPa Calm   2mph /  3.2km/h 77% 0.00in /  0mm 0 W/m2
01:00 65.7 °F /  18.7 °C 58.3 °F /  14.6 °C 30.14in /  1020.5hPa Calm   2mph /  3.2km/h 77% 0.00in /  0mm 0 W/m2
01:10 65.7 °F /  18.7 °C 58.3 °F /  14.6 °C 30.14in /  1020.5hPa Calm   2mph /  3.2km/h 77% 0.00in /  0mm 0 W/m2
01:20 65.5 °F /  18.6 °C 58.4 °F /  14.7 °C 30.14in /  1020.5hPa Calm   2mph /  3.2km/h 78% 0.00in /  0mm 0 W/m2
01:30 65.3 °F /  18.5 °C 58.3 °F /  14.6 °C 30.14in /  1020.5hPa West 1mph /  1.6km/h 2mph /  3.2km/h 78% 0.00in /  0mm 0 W/m2
01:40 65.1 °F /  18.4 °C 58.4 °F /  14.7 °C 30.14in /  1020.5hPa Calm   2mph /  3.2km/h 79% 0.00in /  0mm 0 W/m2
01:50 64.7 °F /  18.2 °C 58 °F /  14.4 °C 30.14in /  1020.5hPa Calm     79% 0.00in /  0mm 0 W/m2
02:00 64.2 °F /  17.9 °C 57.6 °F /  14.2 °C 30.14in /  1020.5hPa Calm   1mph /  1.6km/h 79% 0.00in /  0mm 0 W/m2
02:10 63.9 °F /  17.7 °C 57.6 °F /  14.2 °C 30.14in /  1020.5hPa Calm     80% 0.00in /  0mm 0 W/m2
02:20 63.5 °F /  17.5 °C 57.2 °F /  14 °C 30.14in /  1020.5hPa Calm   1mph /  1.6km/h 80% 0.00in /  0mm 0 W/m2
02:30 63.1 °F /  17.3 °C 57.2 °F /  14 °C 30.14in /  1020.5hPa WSW 1mph /  1.6km/h 2mph /  3.2km/h 81% 0.00in /  0mm 0 W/m2
02:40 62.6 °F /  17 °C 57.4 °F /  14.1 °C 30.14in /  1020.5hPa Calm   2mph /  3.2km/h 83% 0.00in /  0mm 0 W/m2
02:50 62.6 °F /  17 °C 57.4 °F /  14.1 °C 30.14in /  1020.5hPa Calm   2mph /  3.2km/h 83% 0.00in /  0mm 0 W/m2
03:00 62.5 °F /  16.9 °C 57.2 °F /  14 °C 30.14in /  1020.5hPa Calm   1mph /  1.6km/h 83% 0.00in /  0mm 0 W/m2
03:10 62.2 °F /  16.8 °C 57.3 °F /  14.1 °C 30.14in /  1020.5hPa Calm   1mph /  1.6km/h 84% 0.00in /  0mm 0 W/m2
03:20 62.2 °F /  16.8 °C 57.3 °F /  14.1 °C 30.14in /  1020.5hPa Calm   1mph /  1.6km/h 84% 0.00in /  0mm 0 W/m2
03:30 62.1 °F /  16.7 °C 57.2 °F /  14 °C 30.14in /  1020.5hPa Calm   1mph /  1.6km/h 84% 0.00in /  0mm 0 W/m2
03:40 61.9 °F /  16.6 °C 57.3 °F /  14.1 °C 30.14in /  1020.5hPa Calm   2mph /  3.2km/h 85% 0.00in /  0mm 0 W/m2
03:50 61.6 °F /  16.4 °C 57 °F /  13.9 °C 30.14in /  1020.5hPa SW 1mph /  1.6km/h 2mph /  3.2km/h 85% 0.00in /  0mm 0 W/m2
04:00 61.1 °F /  16.2 °C 56.9 °F /  13.8 °C 30.14in /  1020.5hPa WSW 1mph /  1.6km/h 2mph /  3.2km/h 86% 0.00in /  0mm 0 W/m2
04:10 61 °F /  16.1 °C 57.4 °F /  14.1 °C 30.15in /  1020.9hPa WSW 1mph /  1.6km/h 2mph /  3.2km/h 88% 0.00in /  0mm 0 W/m2
04:20 61 °F /  16.1 °C 57.1 °F /  13.9 °C 30.15in /  1020.9hPa Calm   2mph /  3.2km/h 87% 0.00in /  0mm 0 W/m2
04:30 61.2 °F /  16.2 °C 57.6 °F /  14.2 °C 30.15in /  1020.9hPa Calm   2mph /  3.2km/h 88% 0.00in /  0mm 0 W/m2
04:40 61.2 °F /  16.2 °C 56.9 °F /  13.8 °C 30.15in /  1020.9hPa Calm   1mph /  1.6km/h 86% 0.00in /  0mm 0 W/m2
04:50 61 °F /  16.1 °C 56.8 °F /  13.8 °C 30.15in /  1020.9hPa Calm     86% 0.00in /  0mm 0 W/m2
05:00 61 °F /  16.1 °C 57.4 °F /  14.1 °C 30.16in /  1021.2hPa Calm   2mph /  3.2km/h 88% 0.00in /  0mm 0 W/m2
05:10 60.7 °F /  15.9 °C 56.5 °F /  13.6 °C 30.16in /  1021.2hPa Calm   2mph /  3.2km/h 86% 0.00in /  0mm 0 W/m2
05:20 60.6 °F /  15.9 °C 57 °F /  13.9 °C 30.16in /  1021.2hPa Calm   1mph /  1.6km/h 88% 0.00in /  0mm 0 W/m2
05:30 60.4 °F /  15.8 °C 56.6 °F /  13.7 °C 30.16in /  1021.2hPa Calm   1mph /  1.6km/h 87% 0.00in /  0mm 0 W/m2
05:40 60.2 °F /  15.7 °C 56.3 °F /  13.5 °C 30.17in /  1021.6hPa Calm   1mph /  1.6km/h 87% 0.00in /  0mm 0 W/m2
05:50 59.7 °F /  15.4 °C 56.2 °F /  13.4 °C 30.17in /  1021.6hPa Calm     88% 0.00in /  0mm 6 W/m2
06:00 59.7 °F /  15.4 °C 56.2 °F /  13.4 °C 30.17in /  1021.6hPa Calm   2mph /  3.2km/h 88% 0.00in /  0mm 14 W/m2
06:10 59.5 °F /  15.3 °C 56 °F /  13.3 °C 30.18in /  1021.9hPa Calm     88% 0.00in /  0mm 24 W/m2
06:20 59.5 °F /  15.3 °C 56.3 °F /  13.5 °C 30.18in /  1021.9hPa Calm     89% 0.00in /  0mm 38 W/m2
06:30 59.5 °F /  15.3 °C 56.3 °F /  13.5 °C 30.18in /  1021.9hPa Calm   2mph /  3.2km/h 89% 0.00in /  0mm 55 W/m2
06:40 59.5 °F /  15.3 °C 56.3 °F /  13.5 °C 30.18in /  1021.9hPa Calm   2mph /  3.2km/h 89% 0.00in /  0mm 75 W/m2
06:50 59.8 °F /  15.4 °C 56.8 °F /  13.8 °C 30.19in /  1022.2hPa Calm     90% 0.00in /  0mm 98 W/m2
07:00 60 °F /  15.6 °C 57.1 °F /  13.9 °C 30.19in /  1022.2hPa WSW 1mph /  1.6km/h 1mph /  1.6km/h 90% 0.00in /  0mm 121 W/m2
07:10 60.2 °F /  15.7 °C 57.3 °F /  14.1 °C 30.19in /  1022.2hPa Calm   1mph /  1.6km/h 90% 0.00in /  0mm 145 W/m2
07:20 60.4 °F /  15.8 °C 57.2 °F /  14 °C 30.19in /  1022.2hPa Calm   1mph /  1.6km/h 89% 0.00in /  0mm 171 W/m2
07:30 60.9 °F /  16.1 °C 57.6 °F /  14.2 °C 30.19in /  1022.2hPa Calm   1mph /  1.6km/h 89% 0.00in /  0mm 199 W/m2
07:40 61.4 °F /  16.3 °C 58.1 °F /  14.5 °C 30.19in /  1022.2hPa Calm   1mph /  1.6km/h 89% 0.00in /  0mm 227 W/m2
07:50 62 °F /  16.7 °C 58.7 °F /  14.8 °C 30.19in /  1022.2hPa Calm   2mph /  3.2km/h 89% 0.00in /  0mm 260 W/m2
08:00 62.5 °F /  16.9 °C 59.3 °F /  15.2 °C 30.19in /  1022.2hPa WSW 1mph /  1.6km/h 1mph /  1.6km/h 89% 0.00in /  0mm 291 W/m2
08:10 63.3 °F /  17.4 °C 59.6 °F /  15.3 °C 30.19in /  1022.2hPa WSW 1mph /  1.6km/h 4mph /  6.4km/h 88% 0.00in /  0mm 325 W/m2
08:20 64.2 °F /  17.9 °C 60.5 °F /  15.8 °C 30.20in /  1022.6hPa Calm   3mph /  4.8km/h 88% 0.00in /  0mm 364 W/m2
08:30 65.2 °F /  18.4 °C 60.9 °F /  16.1 °C 30.20in /  1022.6hPa SE 1mph /  1.6km/h 5mph /  8km/h 86% 0.00in /  0mm 403 W/m2
08:40 66.3 °F /  19.1 °C 61.3 °F /  16.3 °C 30.19in /  1022.2hPa ENE 2mph /  3.2km/h 5mph /  8km/h 84% 0.00in /  0mm 438 W/m2
08:50 67.4 °F /  19.7 °C 61.7 °F /  16.5 °C 30.19in /  1022.2hPa NE 1mph /  1.6km/h 7mph /  11.3km/h 82% 0.00in /  0mm 472 W/m2
09:00 69.1 °F /  20.6 °C 62.7 °F /  17.1 °C 30.19in /  1022.2hPa NNE 5mph /  8km/h 11mph /  17.7km/h 80% 0.00in /  0mm 494 W/m2
09:10 70.7 °F /  21.5 °C 63.5 °F /  17.5 °C 30.19in /  1022.2hPa NNE 2mph /  3.2km/h 8mph /  12.9km/h 78% 0.00in /  0mm 530 W/m2
09:20 72 °F /  22.2 °C 64.4 °F /  18 °C 30.19in /  1022.2hPa NE 2mph /  3.2km/h 8mph /  12.9km/h 77% 0.00in /  0mm 563 W/m2
09:30 73.4 °F /  23 °C 64.6 °F /  18.1 °C 30.20in /  1022.6hPa NE 2mph /  3.2km/h 10mph /  16.1km/h 74% 0.00in /  0mm 310 W/m2
09:40 74.5 °F /  23.6 °C 64.9 °F /  18.3 °C 30.19in /  1022.2hPa NNE 2mph /  3.2km/h 9mph /  14.5km/h 72% 0.00in /  0mm 281 W/m2
09:50 75.6 °F /  24.2 °C 65.1 °F /  18.4 °C 30.19in /  1022.2hPa NNE 3mph /  4.8km/h 12mph /  19.3km/h 70% 0.00in /  0mm 386 W/m2
10:00 76.5 °F /  24.7 °C 65.6 °F /  18.7 °C 30.19in /  1022.2hPa North 3mph /  4.8km/h 8mph /  12.9km/h 69% 0.00in /  0mm 567 W/m2
10:10 77.7 °F /  25.4 °C 66.2 °F /  19 °C 30.19in /  1022.2hPa NE 2mph /  3.2km/h 12mph /  19.3km/h 68% 0.00in /  0mm 685 W/m2
10:20 78.6 °F /  25.9 °C 66.3 °F /  19.1 °C 30.19in /  1022.2hPa NE 1mph /  1.6km/h 7mph /  11.3km/h 66% 0.00in /  0mm 723 W/m2
10:30 79.6 °F /  26.4 °C 66.3 °F /  19.1 °C 30.19in /  1022.2hPa North 5mph /  8km/h 8mph /  12.9km/h 64% 0.00in /  0mm 746 W/m2
10:40 80.3 °F /  26.8 °C 66.5 °F /  19.2 °C 30.18in /  1021.9hPa NNE 3mph /  4.8km/h 8mph /  12.9km/h 63% 0.00in /  0mm 771 W/m2
10:50 81.2 °F /  27.3 °C 66.5 °F /  19.2 °C 30.18in /  1021.9hPa North 3mph /  4.8km/h 10mph /  16.1km/h 61% 0.00in /  0mm 211 W/m2
11:00 81.9 °F /  27.7 °C 66.6 °F /  19.2 °C 30.18in /  1021.9hPa NNE 5mph /  8km/h 13mph /  20.9km/h 60% 0.00in /  0mm 272 W/m2
11:10 82.5 °F /  28.1 °C 66.7 °F /  19.3 °C 30.17in /  1021.6hPa NNE 5mph /  8km/h 9mph /  14.5km/h 59% 0.00in /  0mm 803 W/m2
11:20 83.3 °F /  28.5 °C 67 °F /  19.4 °C 30.17in /  1021.6hPa NNW 3mph /  4.8km/h 7mph /  11.3km/h 58% 0.00in /  0mm 211 W/m2
11:30 84.4 °F /  29.1 °C 67 °F /  19.4 °C 30.16in /  1021.2hPa North 3mph /  4.8km/h 9mph /  14.5km/h 56% 0.00in /  0mm 838 W/m2
11:40 85 °F /  29.4 °C 67.1 °F /  19.5 °C 30.16in /  1021.2hPa North 2mph /  3.2km/h 9mph /  14.5km/h 55% 0.00in /  0mm 847 W/m2
11:50 85.8 °F /  29.9 °C 67.8 °F /  19.9 °C 30.16in /  1021.2hPa WNW 3mph /  4.8km/h 12mph /  19.3km/h 55% 0.00in /  0mm 855 W/m2
12:00 86.9 °F /  30.5 °C 67.7 °F /  19.8 °C 30.15in /  1020.9hPa NNW 3mph /  4.8km/h 8mph /  12.9km/h 53% 0.00in /  0mm 861 W/m2
12:10 87.9 °F /  31.1 °C 68.1 °F /  20.1 °C 30.15in /  1020.9hPa North 2mph /  3.2km/h 8mph /  12.9km/h 52% 0.00in /  0mm 865 W/m2
12:20 88.6 °F /  31.4 °C 67 °F /  19.4 °C 30.14in /  1020.5hPa NNW 5mph /  8km/h 9mph /  14.5km/h 49% 0.00in /  0mm 868 W/m2
12:30 89.5 °F /  31.9 °C 67.2 °F /  19.6 °C 30.14in /  1020.5hPa NNW 2mph /  3.2km/h 9mph /  14.5km/h 48% 0.00in /  0mm 869 W/m2
12:40 90.4 °F /  32.4 °C 67.5 °F /  19.7 °C 30.13in /  1020.2hPa NNE 5mph /  8km/h 8mph /  12.9km/h 47% 0.00in /  0mm 868 W/m2
12:50 91 °F /  32.8 °C 66 °F /  18.9 °C 30.13in /  1020.2hPa North 7mph /  11.3km/h 12mph /  19.3km/h 44% 0.00in /  0mm 866 W/m2
13:00 91.6 °F /  33.1 °C 66.6 °F /  19.2 °C 30.12in /  1019.9hPa North 5mph /  8km/h 13mph /  20.9km/h 44% 0.00in /  0mm 862 W/m2
13:10 92.1 °F /  33.4 °C 66.4 °F /  19.1 °C 30.12in /  1019.9hPa North 3mph /  4.8km/h 10mph /  16.1km/h 43% 0.00in /  0mm 643 W/m2
13:20 92 °F /  33.3 °C 65.6 °F /  18.7 °C 30.12in /  1019.9hPa North 5mph /  8km/h 12mph /  19.3km/h 42% 0.00in /  0mm 850 W/m2
13:30 92.7 °F /  33.7 °C 66.2 °F /  19 °C 30.12in /  1019.9hPa North 6mph /  9.7km/h 12mph /  19.3km/h 42% 0.00in /  0mm 842 W/m2
13:40 93 °F /  33.9 °C 66.5 °F /  19.2 °C 30.11in /  1019.5hPa North 3mph /  4.8km/h 13mph /  20.9km/h 42% 0.00in /  0mm 832 W/m2
13:50 93.4 °F /  34.1 °C 65.4 °F /  18.6 °C 30.11in /  1019.5hPa North 6mph /  9.7km/h 10mph /  16.1km/h 40% 0.00in /  0mm 820 W/m2
14:00 93.6 °F /  34.2 °C 65.6 °F /  18.7 °C 30.11in /  1019.5hPa North 3mph /  4.8km/h 12mph /  19.3km/h 40% 0.00in /  0mm 807 W/m2
14:10 93.7 °F /  34.3 °C 65.7 °F /  18.7 °C 30.10in /  1019.2hPa NNW 3mph /  4.8km/h 8mph /  12.9km/h 40% 0.00in /  0mm 793 W/m2
14:20 93.7 °F /  34.3 °C 65.8 °F /  18.8 °C 30.09in /  1018.8hPa North 3mph /  4.8km/h 11mph /  17.7km/h 40% 0.00in /  0mm 335 W/m2
14:30 93 °F /  33.9 °C 65.1 °F /  18.4 °C 30.09in /  1018.8hPa North 3mph /  4.8km/h 11mph /  17.7km/h 40% 0.00in /  0mm 759 W/m2
14:40 93.3 °F /  34.1 °C 65.4 °F /  18.6 °C 30.09in /  1018.8hPa North 3mph /  4.8km/h 8mph /  12.9km/h 40% 0.00in /  0mm 698 W/m2
14:50 94.1 °F /  34.5 °C 65.4 °F /  18.6 °C 30.08in /  1018.5hPa North 2mph /  3.2km/h 10mph /  16.1km/h 39% 0.00in /  0mm 721 W/m2
15:00 94.5 °F /  34.7 °C 65.7 °F /  18.7 °C 30.09in /  1018.8hPa North 2mph /  3.2km/h 8mph /  12.9km/h 39% 0.00in /  0mm 700 W/m2
15:10 94.9 °F /  34.9 °C 65.4 °F /  18.6 °C 30.08in /  1018.5hPa North 3mph /  4.8km/h 14mph /  22.5km/h 38% 0.00in /  0mm 677 W/m2
15:20 95.4 °F /  35.2 °C 65.7 °F /  18.7 °C 30.08in /  1018.5hPa NNW 2mph /  3.2km/h 10mph /  16.1km/h 38% 0.00in /  0mm 654 W/m2
15:30 95.4 °F /  35.2 °C 65 °F /  18.3 °C 30.08in /  1018.5hPa NNE 5mph /  8km/h 8mph /  12.9km/h 37% 0.00in /  0mm 629 W/m2
15:40 95.2 °F /  35.1 °C 64.8 °F /  18.2 °C 30.08in /  1018.5hPa North 5mph /  8km/h 13mph /  20.9km/h 37% 0.00in /  0mm 604 W/m2
15:50 94.9 °F /  34.9 °C 65.4 °F /  18.6 °C 30.07in /  1018.2hPa North 5mph /  8km/h 15mph /  24.1km/h 38% 0.00in /  0mm 572 W/m2
16:00 95 °F /  35 °C 65.4 °F /  18.6 °C 30.07in /  1018.2hPa North 5mph /  8km/h 13mph /  20.9km/h 38% 0.00in /  0mm 549 W/m2
16:10 95 °F /  35 °C 65.4 °F /  18.6 °C 30.07in /  1018.2hPa North 3mph /  4.8km/h 12mph /  19.3km/h 38% 0.00in /  0mm 510 W/m2
16:20 94.8 °F /  34.9 °C 65.3 °F /  18.5 °C 30.07in /  1018.2hPa North 2mph /  3.2km/h 10mph /  16.1km/h 38% 0.00in /  0mm 446 W/m2
16:30 94.6 °F /  34.8 °C 65.1 °F /  18.4 °C 30.07in /  1018.2hPa NW 3mph /  4.8km/h 10mph /  16.1km/h 38% 0.00in /  0mm 442 W/m2
16:40 94.5 °F /  34.7 °C 64.9 °F /  18.3 °C 30.07in /  1018.2hPa North 5mph /  8km/h 9mph /  14.5km/h 38% 0.00in /  0mm 414 W/m2
16:50 94.3 °F /  34.6 °C 64.8 °F /  18.2 °C 30.07in /  1018.2hPa NNE 3mph /  4.8km/h 9mph /  14.5km/h 38% 0.00in /  0mm 358 W/m2
17:00 94.1 °F /  34.5 °C 65.4 °F /  18.6 °C 30.07in /  1018.2hPa North 2mph /  3.2km/h 6mph /  9.7km/h 39% 0.00in /  0mm 332 W/m2
17:10 93.8 °F /  34.3 °C 65.1 °F /  18.4 °C 30.07in /  1018.2hPa NNE 3mph /  4.8km/h 8mph /  12.9km/h 39% 0.00in /  0mm 305 W/m2
17:20 93.6 °F /  34.2 °C 64.9 °F /  18.3 °C 30.07in /  1018.2hPa NNE 2mph /  3.2km/h 6mph /  9.7km/h 39% 0.00in /  0mm 255 W/m2
17:30 93.3 °F /  34.1 °C 64.6 °F /  18.1 °C 30.07in /  1018.2hPa NE 2mph /  3.2km/h 9mph /  14.5km/h 39% 0.00in /  0mm 245 W/m2
17:40 92.7 °F /  33.7 °C 64.1 °F /  17.8 °C 30.07in /  1018.2hPa North 2mph /  3.2km/h 8mph /  12.9km/h 39% 0.00in /  0mm 208 W/m2
17:50 92.4 °F /  33.6 °C 64.5 °F /  18.1 °C 30.06in /  1017.8hPa ENE 2mph /  3.2km/h 8mph /  12.9km/h 40% 0.00in /  0mm 180 W/m2
18:00 91.9 °F /  33.3 °C 64.9 °F /  18.3 °C 30.07in /  1018.2hPa NE 2mph /  3.2km/h 8mph /  12.9km/h 41% 0.00in /  0mm 147 W/m2
18:10 91.4 °F /  33 °C 63.7 °F /  17.6 °C 30.06in /  1017.8hPa NNW 2mph /  3.2km/h 8mph /  12.9km/h 40% 0.00in /  0mm 123 W/m2
18:20 90.7 °F /  32.6 °C 63.7 °F /  17.6 °C 30.07in /  1018.2hPa North 2mph /  3.2km/h 8mph /  12.9km/h 41% 0.00in /  0mm 100 W/m2
18:30 90.3 °F /  32.4 °C 64.1 °F /  17.8 °C 30.07in /  1018.2hPa WSW 2mph /  3.2km/h 8mph /  12.9km/h 42% 0.00in /  0mm 79 W/m2
18:40 89.5 °F /  31.9 °C 64 °F /  17.8 °C 30.07in /  1018.2hPa NW 2mph /  3.2km/h 7mph /  11.3km/h 43% 0.00in /  0mm 60 W/m2
18:50 88.6 °F /  31.4 °C 63.9 °F /  17.7 °C 30.08in /  1018.5hPa North 2mph /  3.2km/h 9mph /  14.5km/h 44% 0.00in /  0mm 41 W/m2
19:00 87.8 °F /  31 °C 63.2 °F /  17.3 °C 30.07in /  1018.2hPa North 5mph /  8km/h 9mph /  14.5km/h 44% 0.00in /  0mm 24 W/m2
19:10 86.8 °F /  30.4 °C 62.9 °F /  17.2 °C 30.08in /  1018.5hPa North 3mph /  4.8km/h 8mph /  12.9km/h 45% 0.00in /  0mm 11 W/m2
19:20 86 °F /  30 °C 62.2 °F /  16.8 °C 30.08in /  1018.5hPa NNW 3mph /  4.8km/h 8mph /  12.9km/h 45% 0.00in /  0mm 4 W/m2
19:30 85.4 °F /  29.7 °C 61.6 °F /  16.4 °C 30.08in /  1018.5hPa North 3mph /  4.8km/h 10mph /  16.1km/h 45% 0.00in /  0mm 0 W/m2
19:40 84.9 °F /  29.4 °C 62.4 °F /  16.9 °C 30.08in /  1018.5hPa North 3mph /  4.8km/h 10mph /  16.1km/h 47% 0.00in /  0mm 0 W/m2
19:50 84.3 °F /  29.1 °C 62.5 °F /  16.9 °C 30.09in /  1018.8hPa NNW 5mph /  8km/h 9mph /  14.5km/h 48% 0.00in /  0mm 0 W/m2
20:00 83.8 °F /  28.8 °C 62 °F /  16.7 °C 30.09in /  1018.8hPa NNW 3mph /  4.8km/h 8mph /  12.9km/h 48% 0.00in /  0mm 0 W/m2
20:10 83.3 °F /  28.5 °C 62.2 °F /  16.8 °C 30.09in /  1018.8hPa NNW 2mph /  3.2km/h 6mph /  9.7km/h 49% 0.00in /  0mm 0 W/m2
20:20 82.9 °F /  28.3 °C 61.8 °F /  16.6 °C 30.09in /  1018.8hPa NNW 2mph /  3.2km/h 7mph /  11.3km/h 49% 0.00in /  0mm 0 W/m2
20:30 82.7 °F /  28.2 °C 61.6 °F /  16.4 °C 30.09in /  1018.8hPa NNW 3mph /  4.8km/h 7mph /  11.3km/h 49% 0.00in /  0mm 0 W/m2
20:40 81.9 °F /  27.7 °C 63 °F /  17.2 °C 30.10in /  1019.2hPa North 1mph /  1.6km/h 7mph /  11.3km/h 53% 0.00in /  0mm 0 W/m2
20:50 80.5 °F /  26.9 °C 62.3 °F /  16.8 °C 30.10in /  1019.2hPa SSE 1mph /  1.6km/h 5mph /  8km/h 54% 0.00in /  0mm 0 W/m2
21:00 79.6 °F /  26.4 °C 62.5 °F /  16.9 °C 30.10in /  1019.2hPa SSE 1mph /  1.6km/h 3mph /  4.8km/h 56% 0.00in /  0mm 0 W/m2
21:10 78.4 °F /  25.8 °C 62.4 °F /  16.9 °C 30.10in /  1019.2hPa SSE 2mph /  3.2km/h 5mph /  8km/h 58% 0.00in /  0mm 0 W/m2
21:20 77.8 °F /  25.4 °C 61.8 °F /  16.6 °C 30.11in /  1019.5hPa South 2mph /  3.2km/h 5mph /  8km/h 58% 0.00in /  0mm 0 W/m2
21:30 76.8 °F /  24.9 °C 61.4 °F /  16.3 °C 30.11in /  1019.5hPa South 1mph /  1.6km/h 3mph /  4.8km/h 59% 0.00in /  0mm 0 W/m2
21:40 75.5 °F /  24.2 °C 61.6 °F /  16.4 °C 30.11in /  1019.5hPa South 2mph /  3.2km/h 5mph /  8km/h 62% 0.00in /  0mm 0 W/m2
21:50 74.5 °F /  23.6 °C 61.1 °F /  16.2 °C 30.11in /  1019.5hPa SSE 2mph /  3.2km/h 6mph /  9.7km/h 63% 0.00in /  0mm 0 W/m2
22:00 73.7 °F /  23.2 °C 60.8 °F /  16 °C 30.11in /  1019.5hPa South 1mph /  1.6km/h 6mph /  9.7km/h 64% 0.00in /  0mm 0 W/m2
22:10 73.2 °F /  22.9 °C 60.7 °F /  15.9 °C 30.11in /  1019.5hPa Calm   3mph /  4.8km/h 65% 0.00in /  0mm 0 W/m2
22:20 72.8 °F /  22.7 °C 61.2 °F /  16.2 °C 30.11in /  1019.5hPa West 1mph /  1.6km/h 3mph /  4.8km/h 67% 0.00in /  0mm 0 W/m2
22:30 72.4 °F /  22.4 °C 60.8 °F /  16 °C 30.11in /  1019.5hPa Calm   3mph /  4.8km/h 67% 0.00in /  0mm 0 W/m2
22:40 71.9 °F /  22.2 °C 60.7 °F /  15.9 °C 30.11in /  1019.5hPa SW 1mph /  1.6km/h 3mph /  4.8km/h 68% 0.00in /  0mm 0 W/m2
22:50 71.3 °F /  21.8 °C 60.6 °F /  15.9 °C 30.11in /  1019.5hPa WSW 2mph /  3.2km/h 2mph /  3.2km/h 69% 0.00in /  0mm 0 W/m2
23:00 70.7 °F /  21.5 °C 60.4 °F /  15.8 °C 30.11in /  1019.5hPa WSW 1mph /  1.6km/h 3mph /  4.8km/h 70% 0.00in /  0mm 0 W/m2
23:10 70.2 °F /  21.2 °C 60.4 °F /  15.8 °C 30.11in /  1019.5hPa WSW 1mph /  1.6km/h 3mph /  4.8km/h 71% 0.00in /  0mm 0 W/m2
23:20 69.5 °F /  20.8 °C 60.1 °F /  15.6 °C 30.11in /  1019.5hPa Calm   2mph /  3.2km/h 72% 0.00in /  0mm 0 W/m2
23:30 69.1 °F /  20.6 °C 60 °F /  15.6 °C 30.12in /  1019.9hPa SW 2mph /  3.2km/h 3mph /  4.8km/h 73% 0.00in /  0mm 0 W/m2
23:40 68.7 °F /  20.4 °C 59.7 °F /  15.4 °C 30.12in /  1019.9hPa SW 2mph /  3.2km/h 3mph /  4.8km/h 73% 0.00in /  0mm 0 W/m2
23:50 68.5 °F /  20.3 °C 59.8 °F /  15.4 °C 30.12in /  1019.9hPa SW 1mph /  1.6km/h 3mph /  4.8km/h 74% 0.00in /  0mm 0 W/m2
Knjazevac, Serbia
Compliments of Weather Underground - 2 mb